Time;durP1;ratioP1;P1;durP2;ratioP2;P2;SDS_P1;SDS_P2;PMS_P1;PMS_P2;Temp;Humidity;BMP_temperature;BMP_pressure;BME280_temperature;BME280_humidity;BME280_pressure;Samples;Min_cycle;Max_cycle;Signal;HPM_P1;HPM_P2
2023/03/22 00:00:56;;;;;;;21.60;10.18;;;10.10;99.90;;;;;;5044557;28;20579;-63
2023/03/22 00:03:22;;;;;;;19.80;9.60;;;10.20;99.90;;;;;;5046296;28;20064;-63
2023/03/22 00:05:48;;;;;;;20.08;9.43;;;10.10;99.90;;;;;;5062576;28;20178;-63
2023/03/22 00:08:14;;;;;;;22.05;9.60;;;10.20;99.90;;;;;;5046220;28;20139;-64
2023/03/22 00:10:41;;;;;;;18.83;9.00;;;10.10;99.90;;;;;;5064218;28;20594;-64
2023/03/22 00:13:14;;;;;;;23.13;9.63;;;10.10;99.90;;;;;;5066637;28;20063;-63
2023/03/22 00:15:44;;;;;;;16.73;8.18;;;10.10;99.90;;;;;;5067956;28;20081;-64
2023/03/22 00:18:11;;;;;;;17.67;8.43;;;10.10;99.90;;;;;;5086809;28;20058;-63
2023/03/22 00:20:38;;;;;;;23.25;9.32;;;10.10;99.90;;;;;;5061652;28;20040;-62
2023/03/22 00:23:05;;;;;;;18.88;9.43;;;10.10;99.90;;;;;;5050122;28;20547;-63
2023/03/22 00:25:31;;;;;;;20.70;8.68;;;10.10;99.90;;;;;;5066077;28;20044;-61
2023/03/22 00:27:56;;;;;;;15.50;8.30;;;10.10;99.90;;;;;;5082544;28;20044;-64
2023/03/22 00:30:22;;;;;;;16.67;8.50;;;10.10;99.90;;;;;;5065528;28;20801;-62
2023/03/22 00:32:48;;;;;;;23.20;8.43;;;10.00;99.90;;;;;;5049515;28;20146;-64
2023/03/22 00:35:13;;;;;;;16.55;7.68;;;10.00;99.90;;;;;;5066227;28;20115;-62
2023/03/22 00:37:39;;;;;;;20.38;8.05;;;10.00;99.90;;;;;;5049404;28;20545;-67
2023/03/22 00:40:10;;;;;;;22.40;7.82;;;10.00;99.90;;;;;;5048985;28;20055;-61
2023/03/22 00:42:40;;;;;;;15.10;7.65;;;10.00;99.90;;;;;;5049246;28;20185;-62
2023/03/22 00:45:08;;;;;;;17.20;8.25;;;10.00;99.90;;;;;;5047504;28;20048;-63
2023/03/22 00:47:34;;;;;;;21.60;7.50;;;10.00;99.90;;;;;;5085552;28;20313;-63
2023/03/22 00:50:00;;;;;;;16.13;7.00;;;10.00;99.90;;;;;;5081946;28;20059;-63
2023/03/22 00:52:25;;;;;;;19.25;8.13;;;9.90;99.90;;;;;;5069040;28;20503;-63
2023/03/22 00:54:51;;;;;;;18.27;7.25;;;9.90;99.90;;;;;;5066947;28;20048;-62
2023/03/22 00:57:17;;;;;;;18.92;7.57;;;9.90;99.90;;;;;;5069272;28;20059;-63
2023/03/22 00:59:43;;;;;;;16.52;7.28;;;9.90;99.90;;;;;;5081676;28;20047;-63
2023/03/22 01:02:12;;;;;;;18.42;7.55;;;9.90;99.90;;;;;;5082053;28;20071;-65
2023/03/22 01:04:46;;;;;;;20.73;7.53;;;9.90;99.90;;;;;;5066029;28;20075;-62
2023/03/22 01:07:20;;;;;;;15.25;6.35;;;9.80;99.90;;;;;;5048873;28;20052;-62
2023/03/22 01:09:47;;;;;;;15.40;6.65;;;9.80;99.90;;;;;;5048791;28;20044;-63
2023/03/22 01:12:14;;;;;;;16.60;6.30;;;9.80;99.90;;;;;;5048396;28;20055;-63
2023/03/22 01:14:40;;;;;;;19.33;6.30;;;9.80;99.90;;;;;;5063896;28;20794;-64
2023/03/22 01:17:06;;;;;;;18.60;6.68;;;9.80;99.90;;;;;;5080392;28;20040;-64
2023/03/22 01:19:34;;;;;;;12.55;5.63;;;9.70;99.90;;;;;;5069032;28;20527;-63
2023/03/22 01:22:00;;;;;;;21.17;7.55;;;9.70;99.90;;;;;;5066201;28;20400;-61
2023/03/22 01:24:25;;;;;;;15.52;5.57;;;9.70;99.90;;;;;;5065375;28;20499;-63
2023/03/22 01:26:51;;;;;;;18.40;5.95;;;9.70;99.90;;;;;;5065135;28;20041;-64
2023/03/22 01:29:17;;;;;;;16.83;6.18;;;9.60;99.90;;;;;;5047668;28;20044;-62
2023/03/22 01:31:43;;;;;;;16.35;5.38;;;9.60;99.90;;;;;;5047424;28;20079;-64
2023/03/22 01:34:09;;;;;;;15.43;4.85;;;9.60;99.90;;;;;;5048383;28;20044;-65
2023/03/22 01:36:38;;;;;;;16.70;5.20;;;9.60;99.90;;;;;;5064791;28;20455;-64
2023/03/22 01:39:04;;;;;;;18.52;5.38;;;9.60;99.90;;;;;;5048204;28;20209;-65
2023/03/22 01:41:33;;;;;;;17.35;4.93;;;9.60;99.90;;;;;;5080996;28;20047;-63
2023/03/22 01:44:07;;;;;;;14.88;4.82;;;9.50;99.90;;;;;;5048225;28;20076;-65
2023/03/22 01:46:33;;;;;;;14.20;4.63;;;9.50;99.90;;;;;;5047618;28;20442;-64
2023/03/22 01:49:01;;;;;;;14.23;4.43;;;9.50;99.90;;;;;;5048347;28;20044;-64
2023/03/22 01:51:27;;;;;;;13.15;4.90;;;9.50;99.90;;;;;;5048035;28;20048;-65
2023/03/22 01:54:05;;;;;;;12.27;4.13;;;9.50;99.90;;;;;;5065086;28;20501;-64
2023/03/22 01:56:37;;;;;;;11.15;4.07;;;9.50;99.90;;;;;;5047546;28;20060;-65
2023/03/22 01:59:05;;;;;;;15.07;4.35;;;9.50;99.90;;;;;;5064592;28;20086;-63
2023/03/22 02:01:32;;;;;;;18.90;4.30;;;9.40;99.90;;;;;;5046408;28;20117;-64
2023/03/22 02:03:58;;;;;;;14.07;4.07;;;9.40;99.90;;;;;;5064360;28;20048;-65
2023/03/22 02:06:25;;;;;;;14.82;4.35;;;9.40;99.90;;;;;;5078286;28;20058;-65
2023/03/22 02:08:51;;;;;;;13.35;3.75;;;9.40;99.90;;;;;;5063413;28;20036;-65
2023/03/22 02:11:28;;;;;;;16.52;4.22;;;9.40;99.90;;;;;;5063299;28;20654;-64
2023/03/22 02:13:56;;;;;;;13.50;3.72;;;9.40;99.90;;;;;;5047726;28;20551;-65
2023/03/22 02:16:43;;;;;;;19.25;3.75;;;9.40;99.90;;;;;;5062650;28;20047;-64
2023/03/22 02:19:28;;;;;;;12.75;3.70;;;9.30;99.90;;;;;;5064313;28;20052;-65
2023/03/22 02:21:59;;;;;;;;;;;9.30;99.90;;;;;;5064381;28;20037;-64
2023/03/22 02:24:25;;;;;;;13.20;3.22;;;9.30;99.90;;;;;;5063644;28;19921;-64
2023/03/22 02:27:05;;;;;;;14.57;3.67;;;9.30;99.90;;;;;;5064181;28;20506;-65
2023/03/22 02:29:51;;;;;;;17.13;3.97;;;9.30;99.90;;;;;;5046355;28;20589;-64
2023/03/22 02:32:41;;;;;;;14.90;3.22;;;9.30;99.90;;;;;;5060297;28;20479;-65
2023/03/22 02:35:19;;;;;;;12.43;3.22;;;9.30;99.90;;;;;;5064872;28;20093;-64
2023/03/22 02:38:13;;;;;;;11.02;3.10;;;9.30;99.90;;;;;;5083595;28;20101;-64
2023/03/22 02:40:54;;;;;;;11.13;3.38;;;9.30;99.90;;;;;;5064798;28;20040;-64
2023/03/22 02:43:25;;;;;;;17.08;3.95;;;9.20;99.90;;;;;;5063711;28;20051;-65
2023/03/22 02:46:10;;;;;;;14.20;3.40;;;9.30;99.90;;;;;;5061735;28;20078;-63
2023/03/22 02:49:00;;;;;;;13.48;3.67;;;9.30;99.90;;;;;;5047405;28;20050;-65
2023/03/22 02:51:44;;;;;;;11.32;2.65;;;9.30;99.90;;;;;;5063340;28;20051;-66
2023/03/22 02:54:25;;;;;;;14.35;3.17;;;9.30;99.90;;;;;;5046743;28;20067;-64
2023/03/22 02:57:04;;;;;;;17.83;2.95;;;9.30;99.90;;;;;;5064823;28;20145;-65
2023/03/22 02:59:33;;;;;;;12.07;3.38;;;9.30;99.90;;;;;;5061843;28;20080;-63
2023/03/22 03:02:02;;;;;;;12.60;2.78;;;9.30;99.90;;;;;;5062866;28;20051;-65
2023/03/22 03:04:32;;;;;;;12.50;3.13;;;9.30;99.90;;;;;;5046626;28;20127;-65
2023/03/22 03:07:03;;;;;;;12.93;2.78;;;9.30;99.90;;;;;;5046588;28;20048;-64
2023/03/22 03:09:30;;;;;;;16.95;3.70;;;9.30;99.90;;;;;;5062797;28;20044;-64
2023/03/22 03:11:56;;;;;;;12.27;2.63;;;9.30;99.90;;;;;;5063080;28;20036;-63
2023/03/22 03:14:27;;;;;;;15.95;2.75;;;9.30;99.90;;;;;;5045715;28;20093;-65
2023/03/22 03:17:17;;;;;;;13.50;2.88;;;9.30;99.90;;;;;;5062919;28;20101;-64
2023/03/22 03:20:13;;;;;;;13.52;3.25;;;9.30;99.90;;;;;;5063102;28;20117;-64
2023/03/22 03:23:07;;;;;;;13.60;2.92;;;9.30;99.90;;;;;;5046604;28;20048;-65
2023/03/22 03:25:49;;;;;;;16.30;3.00;;;9.30;99.90;;;;;;5075708;28;20041;-65
2023/03/22 03:28:28;;;;;;;17.85;2.97;;;9.30;99.90;;;;;;5063747;28;20055;-64
2023/03/22 03:31:17;;;;;;;12.45;2.47;;;9.30;99.90;;;;;;5063888;28;20514;-65
2023/03/22 03:34:15;;;;;;;13.50;3.08;;;9.40;99.90;;;;;;5083448;28;20126;-65
2023/03/22 03:36:48;;;;;;;12.57;3.03;;;9.40;99.90;;;;;;5048253;28;20161;-64
2023/03/22 03:39:17;;;;;;;12.73;3.20;;;9.30;99.90;;;;;;5067807;28;20128;-65
2023/03/22 03:41:46;;;;;;;17.25;3.83;;;9.30;99.90;;;;;;5065878;28;20036;-65
2023/03/22 03:44:15;;;;;;;16.42;3.20;;;9.30;99.90;;;;;;5058506;28;20035;-65
2023/03/22 03:46:41;;;;;;;18.60;4.15;;;9.30;99.90;;;;;;5064981;28;20048;-65
2023/03/22 03:49:10;;;;;;;15.27;3.75;;;9.30;99.90;;;;;;5059576;28;20626;-65
2023/03/22 03:51:46;;;;;;;15.60;3.45;;;9.30;99.90;;;;;;5069121;28;20501;-64
2023/03/22 03:54:12;;;;;;;15.00;4.30;;;9.30;99.90;;;;;;5082355;28;20071;-64
2023/03/22 03:56:38;;;;;;;13.68;3.67;;;9.30;99.90;;;;;;5069925;28;20109;-65
2023/03/22 03:59:04;;;;;;;15.70;3.83;;;9.30;99.90;;;;;;5070077;28;20065;-65
2023/03/22 04:01:30;;;;;;;14.40;3.58;;;9.30;99.90;;;;;;5074818;28;20060;-65
2023/03/22 04:03:55;;;;;;;15.27;4.15;;;9.30;99.90;;;;;;5066617;28;20402;-66
2023/03/22 04:06:21;;;;;;;15.45;3.75;;;9.40;99.90;;;;;;5061885;28;20032;-65
2023/03/22 04:08:52;;;;;;;19.83;3.90;;;9.40;99.90;;;;;;5084971;28;20044;-63
2023/03/22 04:11:18;;;;;;;12.35;4.05;;;9.40;99.90;;;;;;5048951;28;20040;-64
2023/03/22 04:13:44;;;;;;;19.30;4.15;;;9.30;99.90;;;;;;5066712;28;20059;-63
2023/03/22 04:16:10;;;;;;;11.70;3.72;;;9.30;99.90;;;;;;5047800;28;20048;-64
2023/03/22 04:18:35;;;;;;;14.38;4.30;;;9.30;99.90;;;;;;5066574;28;20050;-65
2023/03/22 04:21:02;;;;;;;14.88;4.38;;;9.30;99.90;;;;;;5065908;28;20036;-65
2023/03/22 04:23:27;;;;;;;14.15;3.90;;;9.20;99.90;;;;;;5066660;28;20048;-65
2023/03/22 04:25:53;;;;;;;13.35;3.80;;;9.20;99.90;;;;;;5065812;28;20041;-63
2023/03/22 04:28:19;;;;;;;14.95;4.22;;;9.10;99.90;;;;;;5066280;28;20043;-64
2023/03/22 04:30:51;;;;;;;13.10;4.13;;;9.20;99.90;;;;;;5080764;28;20051;-64
2023/03/22 04:33:17;;;;;;;12.40;4.30;;;9.20;99.90;;;;;;5066325;28;20041;-65
2023/03/22 04:35:45;;;;;;;15.90;4.47;;;9.20;99.90;;;;;;5049575;28;20530;-65
2023/03/22 04:38:11;;;;;;;16.23;4.75;;;9.20;99.90;;;;;;5066587;28;20395;-66
2023/03/22 04:40:37;;;;;;;13.93;4.90;;;9.20;99.90;;;;;;5065053;28;20040;-65
2023/03/22 04:43:04;;;;;;;16.20;4.75;;;9.20;99.90;;;;;;5049536;28;20047;-65
2023/03/22 04:45:31;;;;;;;17.35;4.60;;;9.20;99.90;;;;;;5063631;28;20044;-65
2023/03/22 04:47:57;;;;;;;15.13;6.07;;;9.20;99.90;;;;;;5049425;28;20045;-66
2023/03/22 04:50:23;;;;;;;16.65;5.38;;;9.30;99.90;;;;;;5065824;28;20621;-64
2023/03/22 04:52:49;;;;;;;14.38;4.88;;;9.30;99.90;;;;;;5049129;28;20045;-66
2023/03/22 04:55:15;;;;;;;14.35;5.32;;;9.30;99.90;;;;;;5049311;28;20406;-65
2023/03/22 04:57:41;;;;;;;18.45;5.88;;;9.30;99.90;;;;;;5053589;28;20048;-66
2023/03/22 05:00:08;;;;;;;15.77;6.78;;;9.40;99.90;;;;;;5083880;28;20435;-64
2023/03/22 05:02:36;;;;;;;14.98;6.88;;;9.40;99.90;;;;;;5050653;28;20047;-65
2023/03/22 05:05:02;;;;;;;15.38;7.20;;;9.40;99.90;;;;;;5049192;28;20129;-64
2023/03/22 05:07:27;;;;;;;19.35;7.20;;;9.40;99.90;;;;;;5049232;28;20070;-64
2023/03/22 05:09:53;;;;;;;19.08;7.85;;;9.40;99.90;;;;;;5064824;28;20449;-64
2023/03/22 05:12:19;;;;;;;17.88;7.35;;;9.40;99.90;;;;;;5065616;28;20044;-64
2023/03/22 05:14:45;;;;;;;17.90;8.00;;;9.40;99.90;;;;;;5046908;28;20144;-64
2023/03/22 05:17:10;;;;;;;19.90;9.55;;;9.40;99.90;;;;;;5066068;28;20099;-65
2023/03/22 05:19:36;;;;;;;19.42;9.07;;;9.50;99.90;;;;;;5065637;28;20032;-64
2023/03/22 05:22:02;;;;;;;20.30;10.13;;;9.50;99.90;;;;;;5082662;28;20387;-65
2023/03/22 05:24:29;;;;;;;20.17;10.02;;;9.50;99.90;;;;;;5061137;28;20041;-64
2023/03/22 05:26:55;;;;;;;21.27;9.95;;;9.50;99.90;;;;;;5065397;28;20043;-66
2023/03/22 05:29:21;;;;;;;20.95;9.85;;;9.60;99.90;;;;;;5072343;28;20115;-65
2023/03/22 05:31:47;;;;;;;20.80;10.43;;;9.60;99.90;;;;;;5056496;28;20127;-65
2023/03/22 05:34:12;;;;;;;19.67;10.70;;;9.60;99.90;;;;;;5048051;28;20127;-66
2023/03/22 05:36:38;;;;;;;25.35;11.18;;;9.70;99.90;;;;;;5064578;28;20035;-66
2023/03/22 05:39:04;;;;;;;26.63;12.15;;;9.70;99.90;;;;;;5064575;28;20094;-67
2023/03/22 05:41:32;;;;;;;21.98;12.02;;;9.70;99.90;;;;;;5064578;28;20094;-65
2023/03/22 05:43:58;;;;;;;24.45;11.30;;;9.70;99.90;;;;;;5064588;28;20136;-65
2023/03/22 05:46:24;;;;;;;24.02;13.05;;;9.80;99.90;;;;;;5046361;28;20032;-65
2023/03/22 05:48:50;;;;;;;23.83;12.45;;;9.80;99.90;;;;;;5064566;28;20043;-64
2023/03/22 05:51:16;;;;;;;23.85;12.70;;;9.80;99.90;;;;;;5064294;28;20511;-65
2023/03/22 05:53:46;;;;;;;23.75;12.35;;;9.80;99.90;;;;;;5064838;28;20414;-67
2023/03/22 05:56:12;;;;;;;26.63;12.20;;;9.80;99.90;;;;;;5063951;28;20060;-65
2023/03/22 05:58:39;;;;;;;24.35;12.07;;;9.80;99.90;;;;;;5064632;28;20041;-63
2023/03/22 06:01:11;;;;;;;26.98;13.40;;;9.90;99.90;;;;;;5054451;28;20036;-64
2023/03/22 06:03:38;;;;;;;25.40;12.57;;;9.90;99.90;;;;;;5064815;28;20874;-63
2023/03/22 06:06:05;;;;;;;21.67;12.18;;;9.90;99.90;;;;;;5064595;28;20032;-64
2023/03/22 06:08:32;;;;;;;25.23;12.43;;;9.90;99.90;;;;;;5048409;28;20052;-62
2023/03/22 06:10:59;;;;;;;24.88;12.63;;;9.90;99.90;;;;;;5046978;28;20048;-64
2023/03/22 06:13:25;;;;;;;23.33;12.68;;;9.90;99.90;;;;;;5064587;28;20048;-62
2023/03/22 06:15:51;;;;;;;25.48;12.27;;;10.00;99.90;;;;;;5046388;28;20331;-62
2023/03/22 06:18:17;;;;;;;23.77;12.35;;;10.00;99.90;;;;;;5081311;28;20124;-64
2023/03/22 06:20:42;;;;;;;28.15;12.82;;;9.90;99.90;;;;;;5070212;28;20547;-63
2023/03/22 06:23:08;;;;;;;26.92;12.70;;;9.90;99.90;;;;;;5067638;28;20148;-63
2023/03/22 06:25:34;;;;;;;27.65;13.13;;;10.00;99.90;;;;;;5067585;28;20486;-63
2023/03/22 06:28:00;;;;;;;26.85;13.60;;;10.00;99.90;;;;;;5064531;28;20080;-65
2023/03/22 06:30:26;;;;;;;24.65;12.57;;;10.00;99.90;;;;;;5061790;28;20075;-64
2023/03/22 06:32:52;;;;;;;25.30;13.18;;;10.00;99.90;;;;;;5064024;28;20131;-64
2023/03/22 06:35:17;;;;;;;22.52;11.88;;;10.00;99.90;;;;;;5064220;28;20131;-64
2023/03/22 06:37:43;;;;;;;22.90;12.35;;;10.10;99.90;;;;;;5065372;28;20071;-65
2023/03/22 06:40:09;;;;;;;20.42;12.88;;;10.10;99.90;;;;;;5063182;28;20055;-67
2023/03/22 06:42:35;;;;;;;26.20;13.68;;;10.20;99.90;;;;;;5047369;28;20076;-65
2023/03/22 06:45:02;;;;;;;21.23;12.25;;;10.20;99.90;;;;;;5045570;28;20498;-65
2023/03/22 06:47:28;;;;;;;24.98;12.15;;;10.20;99.90;;;;;;5064060;28;20565;-65
2023/03/22 06:49:53;;;;;;;23.08;11.82;;;10.20;99.90;;;;;;5063561;28;20052;-65
2023/03/22 06:52:19;;;;;;;23.55;12.77;;;10.20;99.90;;;;;;5073570;28;20089;-64
2023/03/22 06:54:45;;;;;;;27.38;12.27;;;10.30;99.90;;;;;;5064343;28;20055;-66
2023/03/22 06:57:11;;;;;;;26.60;13.20;;;10.30;99.90;;;;;;5066093;28;20043;-64
2023/03/22 06:59:37;;;;;;;22.15;11.88;;;10.30;99.90;;;;;;5064587;28;20135;-64
2023/03/22 07:02:03;;;;;;;25.80;13.15;;;10.30;99.90;;;;;;5046426;28;20571;-64
2023/03/22 07:04:29;;;;;;;21.77;12.35;;;10.40;99.90;;;;;;5052265;28;20028;-65
2023/03/22 07:06:55;;;;;;;22.20;11.82;;;10.40;99.90;;;;;;5083281;28;20036;-62
2023/03/22 07:09:23;;;;;;;21.63;11.82;;;10.50;99.90;;;;;;5082028;28;20064;-63
2023/03/22 07:11:49;;;;;;;22.52;12.32;;;10.50;99.90;;;;;;5083177;28;20040;-64
2023/03/22 07:14:15;;;;;;;22.30;11.90;;;10.50;99.90;;;;;;5047473;28;20036;-64
2023/03/22 07:16:41;;;;;;;26.25;12.02;;;10.50;99.90;;;;;;5062643;28;20067;-61
2023/03/22 07:19:06;;;;;;;22.10;11.00;;;10.60;99.90;;;;;;5063592;28;20036;-64
2023/03/22 07:21:32;;;;;;;19.85;10.68;;;10.60;99.90;;;;;;5062946;28;20036;-65
2023/03/22 07:23:59;;;;;;;20.30;10.63;;;10.80;99.90;;;;;;5063507;28;20524;-65
2023/03/22 07:26:25;;;;;;;21.35;10.77;;;10.90;99.90;;;;;;5063181;28;20076;-64
2023/03/22 07:28:51;;;;;;;20.92;10.48;;;11.00;99.90;;;;;;5065080;28;20376;-61
2023/03/22 07:31:17;;;;;;;17.77;10.10;;;11.00;99.90;;;;;;5061011;28;20567;-63
2023/03/22 07:33:43;;;;;;;20.73;10.18;;;10.90;99.90;;;;;;5063250;28;20048;-62
2023/03/22 07:36:10;;;;;;;20.60;10.30;;;10.90;99.90;;;;;;5063209;28;20040;-65
2023/03/22 07:38:35;;;;;;;19.40;10.30;;;10.90;99.90;;;;;;5046626;28;20044;-64
2023/03/22 07:41:01;;;;;;;18.13;9.90;;;10.90;99.90;;;;;;5062493;28;20043;-63
2023/03/22 07:43:27;;;;;;;19.08;9.60;;;11.00;99.90;;;;;;5063324;28;20539;-63
2023/03/22 07:45:53;;;;;;;19.27;9.57;;;11.00;99.90;;;;;;5064154;28;20040;-62
2023/03/22 07:48:20;;;;;;;16.00;9.00;;;11.10;99.90;;;;;;5066721;28;20036;-64
2023/03/22 07:50:46;;;;;;;20.77;9.65;;;11.00;99.90;;;;;;5075589;28;20045;-65
2023/03/22 07:53:12;;;;;;;21.50;9.60;;;11.00;99.90;;;;;;5063037;28;20131;-62
2023/03/22 07:55:38;;;;;;;19.75;9.20;;;11.00;99.90;;;;;;5045515;28;20147;-63
2023/03/22 07:58:05;;;;;;;20.20;9.00;;;10.90;99.90;;;;;;5046509;28;20041;-62
2023/03/22 08:00:31;;;;;;;16.65;8.70;;;10.80;99.90;;;;;;5044022;28;20082;-62
2023/03/22 08:02:57;;;;;;;17.42;9.02;;;10.80;99.90;;;;;;5046737;28;20036;-62
2023/03/22 08:05:22;;;;;;;17.50;9.23;;;10.80;99.90;;;;;;5065980;28;20036;-64
2023/03/22 08:07:50;;;;;;;17.95;9.13;;;10.70;99.90;;;;;;5083625;28;20463;-64
2023/03/22 08:10:16;;;;;;;17.27;8.23;;;10.70;99.90;;;;;;5052185;28;20036;-64
2023/03/22 08:12:42;;;;;;;21.30;8.57;;;10.70;99.90;;;;;;5071196;28;20487;-61
2023/03/22 08:15:09;;;;;;;18.85;7.40;;;10.70;99.90;;;;;;5064804;28;20109;-65
2023/03/22 08:17:34;;;;;;;17.20;7.45;;;10.80;99.90;;;;;;5065615;28;20476;-61
2023/03/22 08:20:07;;;;;;;19.65;8.13;;;10.90;99.90;;;;;;5046050;28;20110;-63
2023/03/22 08:22:34;;;;;;;19.30;7.30;;;11.20;99.90;;;;;;5046343;28;20047;-64
2023/03/22 08:25:00;;;;;;;13.50;6.90;;;11.50;99.90;;;;;;5062948;28;20072;-64
2023/03/22 08:27:26;;;;;;;15.63;6.90;;;11.60;99.90;;;;;;5046198;28;20079;-61
2023/03/22 08:29:52;;;;;;;16.00;6.53;;;11.60;99.90;;;;;;5060727;28;20040;-61
2023/03/22 08:32:17;;;;;;;18.85;6.90;;;11.60;99.90;;;;;;5063180;28;20106;-62
2023/03/22 08:34:43;;;;;;;13.70;5.97;;;11.50;99.90;;;;;;5049654;28;20287;-61
2023/03/22 08:37:11;;;;;;;16.73;6.45;;;11.30;99.90;;;;;;5068076;28;20047;-63
2023/03/22 08:39:37;;;;;;;17.67;6.40;;;11.20;99.90;;;;;;5049417;28;20040;-62
2023/03/22 08:42:03;;;;;;;15.15;5.95;;;11.20;99.90;;;;;;5050061;28;20123;-61
2023/03/22 08:44:29;;;;;;;17.05;6.28;;;11.20;99.90;;;;;;5064567;28;20047;-66
2023/03/22 08:46:55;;;;;;;16.48;5.90;;;11.20;99.90;;;;;;5065626;28;20042;-62
2023/03/22 08:49:21;;;;;;;11.80;5.00;;;11.30;99.90;;;;;;5049345;28;20055;-62
2023/03/22 08:51:47;;;;;;;14.63;5.63;;;11.40;99.90;;;;;;5065611;28;20047;-61
2023/03/22 08:54:13;;;;;;;17.60;5.72;;;11.40;99.90;;;;;;5068766;28;20036;-61
2023/03/22 08:56:40;;;;;;;15.18;5.78;;;11.60;99.90;;;;;;5085975;28;20687;-67
2023/03/22 08:59:08;;;;;;;15.85;5.18;;;11.70;99.90;;;;;;5081076;28;20477;-64
2023/03/22 09:01:35;;;;;;;14.45;4.78;;;11.70;99.90;;;;;;5047444;28;20036;-63
2023/03/22 09:04:02;;;;;;;16.70;5.20;;;11.80;99.90;;;;;;5049242;28;20115;-64
2023/03/22 09:06:27;;;;;;;19.58;5.90;;;11.80;99.90;;;;;;5049203;28;20048;-63
2023/03/22 09:08:54;;;;;;;17.35;5.88;;;11.80;99.90;;;;;;5049114;28;20121;-64
2023/03/22 09:11:20;;;;;;;11.45;4.88;;;11.90;99.90;;;;;;5064764;28;20135;-65
2023/03/22 09:13:46;;;;;;;12.77;4.60;;;11.90;99.90;;;;;;5049153;28;20131;-67
2023/03/22 09:16:12;;;;;;;16.02;4.97;;;12.00;99.90;;;;;;5046806;28;20040;-63
2023/03/22 09:18:38;;;;;;;14.40;5.13;;;12.10;99.90;;;;;;5065764;28;20049;-64
2023/03/22 09:21:06;;;;;;;24.90;5.65;;;12.10;99.90;;;;;;5057242;28;20028;-65
2023/03/22 09:23:33;;;;;;;14.85;4.97;;;12.20;99.90;;;;;;5068920;28;20264;-63
2023/03/22 09:26:00;;;;;;;13.48;4.88;;;12.10;99.90;;;;;;5066491;28;20047;-64
2023/03/22 09:28:27;;;;;;;12.68;4.65;;;12.00;99.90;;;;;;5065492;28;20127;-63
2023/03/22 09:30:52;;;;;;;15.00;4.93;;;12.00;99.90;;;;;;5063102;28;20496;-64
2023/03/22 09:33:18;;;;;;;15.18;5.47;;;12.00;99.90;;;;;;5067350;28;20127;-61
2023/03/22 09:35:44;;;;;;;17.52;4.90;;;11.80;99.90;;;;;;5078130;28;20052;-65
2023/03/22 09:38:11;;;;;;;17.00;5.03;;;11.80;99.90;;;;;;5065400;28;20045;-63
2023/03/22 09:40:45;;;;;;;14.60;4.47;;;11.90;99.90;;;;;;5048261;28;20361;-63
2023/03/22 09:43:14;;;;;;;14.68;4.68;;;11.80;99.90;;;;;;5048035;28;20044;-66
2023/03/22 09:45:47;;;;;;;16.25;4.35;;;11.80;99.90;;;;;;5048004;28;20044;-63
2023/03/22 09:48:27;;;;;;;14.30;4.78;;;11.80;99.90;;;;;;5065271;28;20063;-64
2023/03/22 09:50:54;;;;;;;16.23;4.82;;;11.80;99.90;;;;;;5047960;28;20079;-61
2023/03/22 09:53:23;;;;;;;13.68;4.60;;;11.90;99.90;;;;;;5048670;28;20574;-66
2023/03/22 09:55:52;;;;;;;15.18;4.68;;;11.90;99.90;;;;;;5063813;28;20059;-65
2023/03/22 09:58:37;;;;;;;17.92;4.55;;;12.00;99.90;;;;;;5064865;28;20590;-65
2023/03/22 10:01:13;;;;;;;;;;;11.90;99.90;;;;;;5056049;28;20063;-63
2023/03/22 10:03:51;;;;;;;11.70;3.95;;;11.80;99.90;;;;;;5064761;28;19947;-62
2023/03/22 10:06:20;;;;;;;16.10;4.18;;;11.70;99.90;;;;;;5051471;28;20052;-63
2023/03/22 10:09:08;;;;;;;16.65;4.53;;;11.60;99.90;;;;;;5047981;28;20046;-66
2023/03/22 10:11:45;;;;;;;14.43;3.95;;;11.60;99.90;;;;;;5047411;28;20052;-64
2023/03/22 10:14:22;;;;;;;13.13;4.05;;;11.50;99.90;;;;;;5046828;28;20040;-64
2023/03/22 10:16:51;;;;;;;11.55;3.92;;;11.40;99.90;;;;;;5057643;28;20524;-64
2023/03/22 10:19:27;;;;;;;13.25;4.10;;;11.30;99.90;;;;;;5067774;28;20047;-65
2023/03/22 10:21:55;;;;;;;14.48;4.40;;;11.30;99.90;;;;;;5051606;28;20407;-64
2023/03/22 10:24:32;;;;;;;13.32;3.83;;;11.20;99.90;;;;;;5047355;28;20055;-66
2023/03/22 10:26:58;;;;;;;11.18;3.70;;;11.20;99.90;;;;;;5064387;28;20133;-65
2023/03/22 10:29:42;;;;;;;13.85;4.25;;;11.10;99.90;;;;;;5079841;28;20086;-65
2023/03/22 10:32:30;;;;;;;16.25;4.75;;;11.00;99.90;;;;;;5064119;28;20131;-63
2023/03/22 10:34:56;;;;;;;14.68;4.10;;;11.00;99.90;;;;;;5047504;28;20044;-66
2023/03/22 10:37:34;;;;;;;16.35;4.25;;;11.00;99.90;;;;;;5047149;28;20110;-66
2023/03/22 10:40:06;;;;;;;11.40;4.28;;;11.00;99.90;;;;;;5055903;28;20044;-62
2023/03/22 10:42:35;;;;;;;16.10;5.00;;;10.90;99.90;;;;;;5047893;28;20040;-65
2023/03/22 10:45:13;;;;;;;18.90;4.90;;;10.90;99.90;;;;;;5062135;28;20239;-67
2023/03/22 10:47:52;;;;;;;14.27;4.45;;;10.80;99.90;;;;;;5064348;28;20080;-64
2023/03/22 10:50:27;;;;;;;17.55;5.45;;;10.80;99.90;;;;;;5048563;28;20128;-66
2023/03/22 10:53:31;;;;;;;19.10;5.15;;;10.80;99.90;;;;;;5067459;28;20123;-63
2023/03/22 10:55:57;;;;;;;13.60;4.47;;;10.70;99.90;;;;;;5049074;28;20110;-64
2023/03/22 10:58:32;;;;;;;17.52;5.38;;;10.70;99.90;;;;;;5067230;28;20075;-63
2023/03/22 11:01:01;;;;;;;;;;;10.60;99.90;;;;;;5078717;28;20085;-67
2023/03/22 11:03:40;;;;;;;12.38;5.13;;;10.60;99.90;;;;;;5063777;28;19965;-64
2023/03/22 11:06:11;;;;;;;14.75;4.65;;;10.60;99.90;;;;;;5055132;28;20036;-64
2023/03/22 11:08:48;;;;;;;15.13;4.35;;;10.50;99.90;;;;;;5083952;28;20039;-62
2023/03/22 11:11:27;;;;;;;13.98;4.88;;;10.50;99.90;;;;;;5063326;28;20048;-62
2023/03/22 11:14:15;;;;;;;15.27;4.40;;;10.50;99.90;;;;;;5047596;28;20645;-63
2023/03/22 11:17:07;;;;;;;11.82;4.43;;;10.50;99.90;;;;;;5064022;28;20472;-63
2023/03/22 11:19:34;;;;;;;12.35;4.63;;;10.40;99.90;;;;;;5038361;28;20067;-61
2023/03/22 11:22:21;;;;;;;20.02;5.57;;;10.40;99.90;;;;;;5063778;28;20128;-64
2023/03/22 11:24:47;;;;;;;18.15;5.43;;;10.40;99.90;;;;;;5046660;28;20211;-62
2023/03/22 11:27:24;;;;;;;16.50;4.53;;;10.40;99.90;;;;;;5063697;28;20450;-62
2023/03/22 11:30:18;;;;;;;14.32;4.40;;;10.40;99.90;;;;;;5061493;28;20075;-64
2023/03/22 11:32:45;;;;;;;19.25;5.32;;;10.50;99.90;;;;;;5077261;28;20040;-64
2023/03/22 11:35:21;;;;;;;13.52;4.30;;;10.50;99.90;;;;;;5046537;28;20072;-63
2023/03/22 11:37:49;;;;;;;14.20;4.60;;;10.50;99.90;;;;;;5063371;28;20048;-64
2023/03/22 11:40:27;;;;;;;14.77;5.25;;;10.50;99.90;;;;;;5062668;28;20662;-65
2023/03/22 11:43:18;;;;;;;12.98;4.40;;;10.60;99.90;;;;;;5063647;28;20090;-63
2023/03/22 11:45:44;;;;;;;13.02;4.60;;;10.60;99.90;;;;;;5063090;28;20041;-61
2023/03/22 11:48:20;;;;;;;14.18;4.82;;;10.60;99.90;;;;;;5066517;28;20043;-64
2023/03/22 11:50:46;;;;;;;12.00;4.57;;;10.60;99.90;;;;;;5059862;28;20044;-63
2023/03/22 11:53:16;;;;;;;12.65;4.10;;;10.70;99.90;;;;;;5046871;28;20574;-63
2023/03/22 11:55:43;;;;;;;15.40;4.78;;;10.70;99.90;;;;;;5062698;28;20582;-62
2023/03/22 11:58:36;;;;;;;12.95;4.45;;;10.70;99.90;;;;;;5046574;28;20128;-69
2023/03/22 12:01:03;;;;;;;17.75;4.38;;;10.70;99.90;;;;;;5060982;28;20495;-65
2023/03/22 12:03:35;;;;;;;11.30;3.88;;;10.70;99.90;;;;;;5063475;28;20549;-63
2023/03/22 12:06:14;;;;;;;16.10;4.10;;;10.70;99.90;;;;;;5046083;28;20044;-62
2023/03/22 12:08:45;;;;;;;12.48;4.25;;;10.70;99.90;;;;;;5067353;28;20694;-62
2023/03/22 12:11:17;;;;;;;12.65;4.78;;;10.60;99.90;;;;;;5067541;28;20032;-62
2023/03/22 12:13:43;;;;;;;17.73;4.00;;;10.60;99.90;;;;;;5070038;28;20076;-66
2023/03/22 12:16:14;;;;;;;14.82;4.03;;;10.70;99.90;;;;;;5053144;28;20075;-64
2023/03/22 12:18:40;;;;;;;16.60;3.88;;;10.60;99.90;;;;;;5066785;28;20040;-62
2023/03/22 12:21:09;;;;;;;14.23;4.70;;;10.70;99.90;;;;;;5073389;28;20067;-62
2023/03/22 12:23:35;;;;;;;13.52;3.55;;;10.70;99.90;;;;;;5050531;28;20045;-62
2023/03/22 12:26:11;;;;;;;12.02;3.65;;;10.60;99.90;;;;;;5065892;28;20123;-64
2023/03/22 12:28:55;;;;;;;13.82;4.18;;;10.60;99.90;;;;;;5049905;28;20040;-63
2023/03/22 12:31:36;;;;;;;13.77;3.45;;;10.60;99.90;;;;;;5064211;28;20516;-65
2023/03/22 12:34:18;;;;;;;12.45;3.88;;;10.60;99.90;;;;;;5066580;28;20131;-65
2023/03/22 12:36:51;;;;;;;12.20;3.65;;;10.60;99.90;;;;;;5050213;28;20637;-60
2023/03/22 12:39:39;;;;;;;13.05;3.97;;;10.60;99.90;;;;;;5051517;28;20045;-62
2023/03/22 12:42:22;;;;;;;13.73;4.50;;;10.60;99.90;;;;;;5086673;28;20123;-63
2023/03/22 12:44:50;;;;;;;10.50;3.58;;;10.60;99.90;;;;;;5082088;28;20517;-62
2023/03/22 12:47:20;;;;;;;8.32;3.55;;;10.60;99.90;;;;;;5067736;28;20043;-63
2023/03/22 12:50:16;;;;;;;17.33;4.63;;;10.60;99.90;;;;;;5065745;28;20048;-62
2023/03/22 12:52:46;;;;;;;13.40;4.40;;;10.60;99.90;;;;;;5066073;28;20040;-61
2023/03/22 12:55:21;;;;;;;11.02;4.03;;;10.50;99.90;;;;;;5066675;28;20126;-64